Time;durP1;ratioP1;P1;durP2;ratioP2;P2;SDS_P1;SDS_P2;PMS_P1;PMS_P2;Temp;Humidity;BMP_temperature;BMP_pressure;BME280_temperature;BME280_humidity;BME280_pressure;Samples;Min_cycle;Max_cycle;Signal;HPM_P1;HPM_P2
2023/03/01 00:00:24;;;;;;;12.90;11.60;;;6.00;31.00;;;;;;10362307;28;20598;-73
2023/03/01 00:05:27;;;;;;;11.67;10.47;;;6.00;31.10;;;;;;10365455;28;20226;-73
2023/03/01 00:10:30;;;;;;;12.53;11.27;;;5.90;31.00;;;;;;10364525;28;20241;-73
2023/03/01 00:15:38;;;;;;;13.30;11.87;;;5.90;31.10;;;;;;10361684;28;20230;-73
2023/03/01 00:20:41;;;;;;;11.83;10.67;;;5.80;31.20;;;;;;10364786;28;20238;-73
2023/03/01 00:25:45;;;;;;;12.73;11.43;;;5.80;31.20;;;;;;10360051;28;20597;-73
2023/03/01 00:30:49;;;;;;;12.20;11.00;;;5.80;31.40;;;;;;10365805;28;20300;-73
2023/03/01 00:35:52;;;;;;;12.23;11.03;;;5.80;31.40;;;;;;10363221;28;20230;-73
2023/03/01 00:40:55;;;;;;;12.27;11.07;;;5.70;31.30;;;;;;10363604;28;20458;-73
2023/03/01 00:46:04;;;;;;;13.07;11.80;;;5.70;31.30;;;;;;10364213;28;20261;-73
2023/03/01 00:51:09;;;;;;;12.77;11.50;;;5.60;31.50;;;;;;10360822;28;20695;-74
2023/03/01 00:56:13;;;;;;;13.20;11.33;;;5.60;31.20;;;;;;10364266;28;20234;-73
2023/03/01 01:01:21;;;;;;;12.13;10.93;;;5.60;31.20;;;;;;10362938;28;20226;-73
2023/03/01 01:06:26;;;;;;;12.87;11.57;;;5.50;31.40;;;;;;10362493;28;20237;-73
2023/03/01 01:11:30;;;;;;;13.50;12.17;;;5.50;31.30;;;;;;10362650;28;20246;-73
2023/03/01 01:16:35;;;;;;;12.83;11.47;;;5.50;31.40;;;;;;10361216;28;20230;-74
2023/03/01 01:21:38;;;;;;;12.63;11.37;;;5.40;31.30;;;;;;10362229;28;20706;-74
2023/03/01 01:26:42;;;;;;;12.53;11.23;;;5.40;31.50;;;;;;10360341;28;20241;-73
2023/03/01 01:31:46;;;;;;;13.27;11.93;;;5.30;31.40;;;;;;10361240;28;20230;-73
2023/03/01 01:36:50;;;;;;;11.90;10.70;;;5.30;31.70;;;;;;10361447;28;20261;-74
2023/03/01 01:41:53;;;;;;;13.10;11.80;;;5.30;31.70;;;;;;10361395;28;20229;-74
2023/03/01 01:47:01;;;;;;;12.87;11.57;;;5.20;31.60;;;;;;10363908;28;20733;-74
2023/03/01 01:52:10;;;;;;;13.50;12.10;;;5.20;31.90;;;;;;10360618;28;20226;-73
2023/03/01 01:57:18;;;;;;;13.03;11.73;;;5.10;31.90;;;;;;10360314;28;20237;-73
2023/03/01 02:02:23;;;;;;;14.03;12.53;;;5.10;31.90;;;;;;10360225;28;22391;-73
2023/03/01 02:07:27;;;;;;;13.90;12.43;;;5.10;32.00;;;;;;10361425;28;20358;-73
2023/03/01 02:12:31;;;;;;;13.90;12.47;;;5.10;32.00;;;;;;10361875;28;20229;-73
2023/03/01 02:17:36;;;;;;;13.87;11.90;;;5.00;32.00;;;;;;10360868;28;20718;-74
2023/03/01 02:22:40;;;;;;;13.40;12.00;;;5.00;32.10;;;;;;10360210;28;20473;-74
2023/03/01 02:27:52;;;;;;;12.97;11.67;;;5.00;32.10;;;;;;10359144;28;20230;-74
2023/03/01 02:33:02;;;;;;;12.77;11.47;;;5.00;32.30;;;;;;10359544;28;20222;-74
2023/03/01 02:38:09;;;;;;;13.67;12.23;;;5.00;32.20;;;;;;10360070;28;20230;-74
2023/03/01 02:43:14;;;;;;;13.80;12.40;;;5.00;32.20;;;;;;10358017;28;20595;-74
2023/03/01 02:48:18;;;;;;;13.67;12.27;;;5.00;32.00;;;;;;10360312;28;20718;-74
2023/03/01 02:53:28;;;;;;;13.53;11.63;;;4.90;31.90;;;;;;10359199;28;20779;-74
2023/03/01 02:58:32;;;;;;;12.63;11.33;;;4.90;32.00;;;;;;10358544;28;20599;-74
2023/03/01 03:03:36;;;;;;;12.13;10.93;;;4.90;31.80;;;;;;10360376;28;20220;-74
2023/03/01 03:08:39;;;;;;;12.83;11.40;;;4.80;31.90;;;;;;10357613;28;20250;-74
2023/03/01 03:13:47;;;;;;;13.00;11.60;;;4.80;31.80;;;;;;10356273;28;20233;-74
2023/03/01 03:18:52;;;;;;;12.43;11.13;;;4.70;31.70;;;;;;10359132;28;20684;-74
2023/03/01 03:23:55;;;;;;;12.63;11.33;;;4.70;31.90;;;;;;10358620;28;20231;-74
2023/03/01 03:29:01;;;;;;;11.93;10.67;;;4.70;31.80;;;;;;10360491;28;20572;-74
2023/03/01 03:34:05;;;;;;;13.53;12.13;;;4.80;31.90;;;;;;10358619;28;20591;-74
2023/03/01 03:39:10;;;;;;;11.57;10.30;;;4.60;31.90;;;;;;10356360;28;20230;-74
2023/03/01 03:44:13;;;;;;;12.50;11.30;;;4.60;31.90;;;;;;10362022;28;20276;-74
2023/03/01 03:49:18;;;;;;;12.77;11.57;;;4.70;32.00;;;;;;10357892;28;20238;-73
2023/03/01 03:54:21;;;;;;;12.97;11.63;;;4.60;32.00;;;;;;10360400;28;20698;-73
2023/03/01 03:59:24;;;;;;;12.10;10.87;;;4.60;31.90;;;;;;10357859;28;20242;-74
2023/03/01 04:04:28;;;;;;;13.43;12.03;;;4.60;31.80;;;;;;10356481;28;20222;-74
2023/03/01 04:09:31;;;;;;;13.40;12.00;;;4.60;31.90;;;;;;10358122;28;20276;-74
2023/03/01 04:14:35;;;;;;;12.77;11.47;;;4.50;31.80;;;;;;10348763;28;20226;-74
2023/03/01 04:19:39;;;;;;;14.20;12.03;;;4.50;31.80;;;;;;10357773;28;20233;-74
2023/03/01 04:24:43;;;;;;;13.60;11.77;;;4.50;31.90;;;;;;10358267;28;20218;-74
2023/03/01 04:29:46;;;;;;;11.60;10.30;;;4.50;31.80;;;;;;10357315;28;20253;-74
2023/03/01 04:34:50;;;;;;;12.80;11.47;;;4.50;31.80;;;;;;10357731;28;20633;-74
2023/03/01 04:39:53;;;;;;;13.17;11.83;;;4.40;31.80;;;;;;10357708;28;20234;-76
2023/03/01 04:44:56;;;;;;;13.67;11.60;;;4.30;31.80;;;;;;10358655;28;20230;-74
2023/03/01 04:50:01;;;;;;;14.13;12.47;;;4.30;31.90;;;;;;10364468;28;20230;-74
2023/03/01 04:55:05;;;;;;;14.43;12.10;;;4.20;31.90;;;;;;10361760;28;20237;-71
2023/03/01 05:00:20;;;;;;;13.67;12.27;;;4.20;31.90;;;;;;10363667;28;20245;-71
2023/03/01 05:05:32;;;;;;;13.43;11.87;;;4.20;31.90;;;;;;10360815;28;20222;-74
2023/03/01 05:10:38;;;;;;;12.40;11.17;;;4.20;32.20;;;;;;10364193;28;20607;-74
2023/03/01 05:15:41;;;;;;;13.50;12.20;;;4.10;31.90;;;;;;10363397;28;20226;-74
2023/03/01 05:20:47;;;;;;;12.73;11.43;;;4.10;32.00;;;;;;10363784;28;20312;-74
2023/03/01 05:25:52;;;;;;;13.80;12.40;;;4.00;32.10;;;;;;10361464;28;20237;-74
2023/03/01 05:30:55;;;;;;;14.20;12.70;;;4.00;32.10;;;;;;10362280;28;20269;-74
2023/03/01 05:36:01;;;;;;;15.27;13.13;;;3.90;32.00;;;;;;10360975;28;20230;-73
2023/03/01 05:41:04;;;;;;;14.33;12.93;;;4.00;32.10;;;;;;10357748;28;20281;-73
2023/03/01 05:46:12;;;;;;;13.93;12.43;;;3.90;31.90;;;;;;10361761;28;20757;-74
2023/03/01 05:51:17;;;;;;;14.83;13.00;;;4.00;32.00;;;;;;10362585;28;20244;-73
2023/03/01 05:56:22;;;;;;;14.53;12.93;;;3.80;32.00;;;;;;10361345;28;20742;-74
2023/03/01 06:01:25;;;;;;;14.90;12.30;;;3.70;31.90;;;;;;10361899;28;20230;-73
2023/03/01 06:06:30;;;;;;;14.67;12.93;;;3.70;31.90;;;;;;10359084;28;20234;-71
2023/03/01 06:11:35;;;;;;;13.67;12.27;;;3.70;32.20;;;;;;10359941;28;20607;-74
2023/03/01 06:16:38;;;;;;;14.40;12.67;;;3.60;32.00;;;;;;10359340;28;20230;-73
2023/03/01 06:21:42;;;;;;;11.97;9.67;;;3.50;32.10;;;;;;10361774;28;20225;-69
2023/03/01 06:26:45;;;;;;;14.53;12.30;;;3.60;34.50;;;;;;10354037;28;20226;-74
2023/03/01 06:31:49;;;;;;;15.50;12.57;;;3.60;34.30;;;;;;10358208;28;20226;-73
2023/03/01 06:36:53;;;;;;;14.00;11.53;;;3.70;33.30;;;;;;10357962;28;20241;-73
2023/03/01 06:41:56;;;;;;;16.23;13.37;;;3.80;33.00;;;;;;10358452;28;20226;-73
2023/03/01 06:46:59;;;;;;;14.27;12.83;;;3.80;32.70;;;;;;10358991;28;20226;-73
2023/03/01 06:52:04;;;;;;;14.40;12.80;;;3.80;32.50;;;;;;10358931;28;20253;-74
2023/03/01 06:57:07;;;;;;;15.17;12.83;;;3.70;32.60;;;;;;10357824;28;20241;-73
2023/03/01 07:02:12;;;;;;;16.57;12.97;;;3.70;32.60;;;;;;10356580;28;20741;-75
2023/03/01 07:07:17;;;;;;;14.93;12.30;;;3.60;32.60;;;;;;10355259;28;20242;-74
2023/03/01 07:12:20;;;;;;;15.30;12.13;;;3.60;32.70;;;;;;10358193;28;20671;-74
2023/03/01 07:17:24;;;;;;;14.17;12.07;;;3.60;32.70;;;;;;10356367;28;22383;-74
2023/03/01 07:22:28;;;;;;;17.20;13.13;;;3.60;32.80;;;;;;10355091;28;20230;-74
2023/03/01 07:27:31;;;;;;;17.13;12.93;;;3.60;32.90;;;;;;10353185;28;20241;-75
2023/03/01 07:32:34;;;;;;;17.00;13.10;;;3.60;32.90;;;;;;10356019;28;20226;-74
2023/03/01 07:37:39;;;;;;;15.50;12.83;;;3.60;33.00;;;;;;10354302;28;20234;-74
2023/03/01 07:42:42;;;;;;;14.77;13.23;;;3.70;33.10;;;;;;10358686;28;20234;-74
2023/03/01 07:47:45;;;;;;;15.83;12.70;;;3.60;33.10;;;;;;10359600;28;20795;-74
2023/03/01 07:52:51;;;;;;;16.00;13.83;;;3.70;33.20;;;;;;10357803;28;20226;-74
2023/03/01 07:57:54;;;;;;;14.53;12.93;;;3.70;33.60;;;;;;10357430;28;20241;-72
2023/03/01 08:03:00;;;;;;;15.47;13.37;;;3.80;33.60;;;;;;10358087;28;20233;-72
2023/03/01 08:08:05;;;;;;;16.17;14.03;;;3.80;33.70;;;;;;10357524;28;20230;-72
2023/03/01 08:13:09;;;;;;;17.67;14.37;;;3.90;33.90;;;;;;10358771;28;20241;-71
2023/03/01 08:18:12;;;;;;;16.97;14.60;;;4.10;33.80;;;;;;10357635;28;20329;-71
2023/03/01 08:23:16;;;;;;;17.07;14.93;;;4.10;33.70;;;;;;10365877;28;20734;-71
2023/03/01 08:28:19;;;;;;;15.90;14.20;;;4.40;34.00;;;;;;10364994;28;20253;-71
2023/03/01 08:33:23;;;;;;;19.27;15.87;;;4.60;33.90;;;;;;10365684;28;20595;-71
2023/03/01 08:38:27;;;;;;;17.50;15.07;;;4.70;33.70;;;;;;10362891;28;20329;-70
2023/03/01 08:43:31;;;;;;;16.50;14.83;;;4.90;33.70;;;;;;10363332;28;20230;-70
2023/03/01 08:48:34;;;;;;;15.67;14.03;;;5.20;33.70;;;;;;10365340;28;20230;-70
2023/03/01 08:53:39;;;;;;;17.43;15.53;;;5.40;33.40;;;;;;10364941;28;20222;-70
2023/03/01 08:58:45;;;;;;;16.37;14.67;;;5.60;33.30;;;;;;10366010;28;20230;-70
2023/03/01 09:03:48;;;;;;;16.27;14.47;;;5.80;33.30;;;;;;10364109;28;20230;-70
2023/03/01 09:08:54;;;;;;;16.00;14.37;;;6.00;33.30;;;;;;10364516;28;20230;-69
2023/03/01 09:13:57;;;;;;;16.07;14.37;;;6.20;33.00;;;;;;10361225;28;20317;-70
2023/03/01 09:19:00;;;;;;;15.40;13.90;;;6.40;33.00;;;;;;10364103;28;20742;-69
2023/03/01 09:24:06;;;;;;;15.70;14.10;;;6.50;32.80;;;;;;10362996;28;20722;-70
2023/03/01 09:29:10;;;;;;;15.07;13.47;;;6.70;32.70;;;;;;10362163;28;20603;-70
2023/03/01 09:34:15;;;;;;;16.00;14.27;;;6.90;32.50;;;;;;10360521;28;20230;-69
2023/03/01 09:39:21;;;;;;;15.63;13.53;;;7.10;32.50;;;;;;10363519;28;20261;-69
2023/03/01 09:44:36;;;;;;;15.10;13.60;;;7.30;31.90;;;;;;10360233;28;20623;-70
2023/03/01 09:49:48;;;;;;;15.13;13.60;;;7.40;31.00;;;;;;10363346;28;20794;-70
2023/03/01 09:54:56;;;;;;;15.80;13.97;;;7.50;31.40;;;;;;10362012;28;20313;-69
2023/03/01 10:00:16;;;;;;;15.27;13.70;;;7.70;31.30;;;;;;10362713;28;20329;-70
2023/03/01 10:05:32;;;;;;;14.47;13.07;;;7.90;31.00;;;;;;10361732;28;20316;-70
2023/03/01 10:10:39;;;;;;;15.70;13.37;;;8.10;30.60;;;;;;10361076;28;20228;-69
2023/03/01 10:15:48;;;;;;;15.70;14.10;;;8.20;31.40;;;;;;10361988;28;20233;-69
2023/03/01 10:20:54;;;;;;;15.27;13.77;;;8.30;30.40;;;;;;10358118;28;20281;-69
2023/03/01 10:26:18;;;;;;;15.27;13.77;;;8.40;30.30;;;;;;10360312;28;20242;-69
2023/03/01 10:31:27;;;;;;;14.53;13.13;;;8.50;29.10;;;;;;10361126;28;20222;-69
2023/03/01 10:36:34;;;;;;;15.00;13.50;;;8.60;30.10;;;;;;10359927;28;20237;-69
2023/03/01 10:41:53;;;;;;;15.10;13.60;;;8.60;30.10;;;;;;10358903;28;20230;-70
2023/03/01 10:47:01;;;;;;;15.60;13.97;;;8.70;29.90;;;;;;10360183;28;20825;-70
2023/03/01 10:52:19;;;;;;;15.57;14.03;;;8.90;29.80;;;;;;10357274;28;20633;-73
2023/03/01 10:57:39;;;;;;;16.23;14.50;;;9.00;29.60;;;;;;10357564;28;20718;-73
2023/03/01 11:02:47;;;;;;;15.47;13.67;;;9.20;29.30;;;;;;10357658;28;20697;-70
2023/03/01 11:07:52;;;;;;;15.93;14.33;;;9.20;30.10;;;;;;10358598;28;20601;-70
2023/03/01 11:13:08;;;;;;;16.57;14.63;;;9.30;29.80;;;;;;10357611;28;20241;-70
2023/03/01 11:18:21;;;;;;;15.30;13.73;;;9.40;28.70;;;;;;10357823;28;20697;-69
2023/03/01 11:23:40;;;;;;;14.37;13.00;;;9.40;28.80;;;;;;10356751;28;20316;-70
2023/03/01 11:28:52;;;;;;;15.03;13.60;;;9.50;29.70;;;;;;10356908;28;20230;-73
2023/03/01 11:34:00;;;;;;;15.03;13.43;;;9.60;29.30;;;;;;10355561;28;20228;-74
2023/03/01 11:39:13;;;;;;;14.73;13.23;;;9.80;29.50;;;;;;10357223;28;20230;-73
2023/03/01 11:44:20;;;;;;;15.20;13.60;;;9.90;29.50;;;;;;10355999;28;20238;-69
2023/03/01 11:50:01;;;;;;;15.83;14.27;;;10.00;28.40;;;;;;10355118;28;20237;-69
2023/03/01 11:55:24;;;;;;;14.03;12.73;;;10.00;28.30;;;;;;10351179;28;20218;-69
2023/03/01 12:00:45;;;;;;;14.77;13.37;;;10.10;28.40;;;;;;10360987;28;20757;-69
2023/03/01 12:06:23;;;;;;;14.13;12.77;;;10.10;28.00;;;;;;10360739;28;20226;-69
2023/03/01 12:11:40;;;;;;;13.83;12.43;;;10.20;28.50;;;;;;10360331;28;20865;-69
2023/03/01 12:17:26;;;;;;;13.30;12.00;;;10.20;28.50;;;;;;10364580;28;20226;-69
2023/03/01 12:22:40;;;;;;;13.40;12.20;;;10.30;28.00;;;;;;10346176;28;20222;-69
2023/03/01 12:27:59;;;;;;;15.40;13.20;;;10.40;28.00;;;;;;10353077;28;20242;-68
2023/03/01 12:33:21;;;;;;;14.97;13.33;;;10.40;28.00;;;;;;10362978;28;20230;-73
2023/03/01 12:38:37;;;;;;;13.03;11.73;;;10.40;28.00;;;;;;10361838;28;20238;-74
2023/03/01 12:43:56;;;;;;;13.70;12.23;;;10.50;27.90;;;;;;10361607;28;20244;-74
2023/03/01 12:49:08;;;;;;;14.10;12.73;;;10.60;28.10;;;;;;10364605;28;20241;-74
2023/03/01 12:54:17;;;;;;;13.47;12.17;;;10.70;28.20;;;;;;10351288;28;20652;-73
2023/03/01 12:59:26;;;;;;;14.07;12.63;;;10.70;28.30;;;;;;10352753;28;20813;-73
2023/03/01 13:04:43;;;;;;;13.57;12.30;;;10.80;28.40;;;;;;10354101;28;20738;-73
2023/03/01 13:09:55;;;;;;;12.77;11.57;;;10.80;28.10;;;;;;10354320;28;20253;-73
2023/03/01 13:14:58;;;;;;;13.03;11.67;;;10.80;27.80;;;;;;10352351;28;20603;-74
2023/03/01 13:20:03;;;;;;;13.07;11.77;;;10.80;28.70;;;;;;10351638;28;20234;-73
2023/03/01 13:25:20;;;;;;;12.30;11.13;;;10.90;28.90;;;;;;10345502;28;20226;-73
2023/03/01 13:30:43;;;;;;;13.80;12.40;;;10.90;27.80;;;;;;10348747;28;20230;-74
2023/03/01 13:35:46;;;;;;;13.67;11.80;;;10.80;27.30;;;;;;10348818;28;20333;-72
2023/03/01 13:41:00;;;;;;;12.83;11.47;;;11.00;29.00;;;;;;10350563;28;20230;-72
2023/03/01 13:46:11;;;;;;;12.83;11.63;;;11.00;28.20;;;;;;10349193;28;20234;-72
2023/03/01 13:51:15;;;;;;;13.17;11.97;;;11.20;28.00;;;;;;10351886;28;20238;-72
2023/03/01 13:56:24;;;;;;;13.80;12.43;;;11.20;28.60;;;;;;10352439;28;20234;-71
2023/03/01 14:01:30;;;;;;;12.77;11.57;;;11.20;28.00;;;;;;10350221;28;20229;-71
2023/03/01 14:06:36;;;;;;;13.87;12.30;;;11.30;28.30;;;;;;10351431;28;20268;-70
2023/03/01 14:12:10;;;;;;;13.30;10.90;;;11.30;28.40;;;;;;10351118;28;20234;-71
2023/03/01 14:17:55;;;;;;;13.20;11.80;;;11.40;27.80;;;;;;10351601;28;20257;-72
2023/03/01 14:23:01;;;;;;;12.67;11.37;;;11.40;27.80;;;;;;10344140;28;20238;-71
2023/03/01 14:28:17;;;;;;;12.23;11.13;;;11.40;28.20;;;;;;10321357;28;20691;-71
2023/03/01 14:33:23;;;;;;;12.70;11.40;;;11.50;27.80;;;;;;10333697;28;20223;-71
2023/03/01 14:38:35;;;;;;;13.33;12.00;;;11.50;28.10;;;;;;10350524;28;20235;-71
2023/03/01 14:43:44;;;;;;;12.23;11.03;;;11.50;27.80;;;;;;10348913;28;20225;-71
2023/03/01 14:48:50;;;;;;;12.40;11.20;;;11.50;28.20;;;;;;10359844;28;20226;-71
2023/03/01 14:53:54;;;;;;;12.33;11.17;;;11.50;28.00;;;;;;10359293;28;20273;-71
2023/03/01 14:59:00;;;;;;;13.03;11.73;;;11.50;28.30;;;;;;10357390;28;20229;-71
2023/03/01 15:04:03;;;;;;;11.93;10.83;;;11.60;28.10;;;;;;10359380;28;20368;-72
2023/03/01 15:09:08;;;;;;;12.87;11.73;;;11.60;28.50;;;;;;10360847;28;20830;-72
2023/03/01 15:14:39;;;;;;;12.70;11.40;;;11.70;28.50;;;;;;10356144;28;20234;-72
2023/03/01 15:19:42;;;;;;;13.90;12.50;;;11.70;27.70;;;;;;10352124;28;20230;-72
2023/03/01 15:24:49;;;;;;;13.80;12.40;;;11.80;28.30;;;;;;10354132;28;20329;-72
2023/03/01 15:29:56;;;;;;;13.77;12.37;;;11.80;28.20;;;;;;10354796;28;20244;-72
2023/03/01 15:35:00;;;;;;;13.83;12.43;;;11.70;27.90;;;;;;10354473;28;20272;-72
2023/03/01 15:40:18;;;;;;;14.47;13.00;;;11.70;28.20;;;;;;10315184;28;20235;-71
2023/03/01 15:45:27;;;;;;;14.40;12.90;;;11.70;28.20;;;;;;10315735;28;20709;-72
2023/03/01 15:50:32;;;;;;;14.03;12.57;;;11.70;27.90;;;;;;10314743;28;20230;-72
2023/03/01 15:55:35;;;;;;;16.47;14.20;;;11.70;28.20;;;;;;10316483;28;20738;-72
2023/03/01 16:00:41;;;;;;;15.33;13.53;;;11.70;28.10;;;;;;10316551;28;20231;-72
2023/03/01 16:06:01;;;;;;;15.23;13.80;;;11.60;27.80;;;;;;10315633;28;20765;-72
2023/03/01 16:11:05;;;;;;;15.77;14.17;;;11.60;28.10;;;;;;10316709;28;20245;-72
2023/03/01 16:16:14;;;;;;;14.90;13.37;;;11.50;28.00;;;;;;10317510;28;20715;-72
2023/03/01 16:21:22;;;;;;;16.33;14.27;;;11.50;27.80;;;;;;10314727;28;20282;-72
2023/03/01 16:26:27;;;;;;;14.87;13.47;;;11.40;27.90;;;;;;10314160;28;20235;-72
2023/03/01 16:31:32;;;;;;;15.50;13.90;;;11.40;28.00;;;;;;10317109;28;20227;-72
2023/03/01 16:36:36;;;;;;;17.27;14.43;;;11.30;27.90;;;;;;10316897;28;20325;-72
2023/03/01 16:41:39;;;;;;;15.30;13.70;;;11.20;28.00;;;;;;10325062;28;20230;-72
2023/03/01 16:46:44;;;;;;;14.50;12.93;;;11.10;28.10;;;;;;10323443;28;20246;-72
2023/03/01 16:51:47;;;;;;;14.73;13.30;;;11.00;28.00;;;;;;10348411;28;20222;-71
2023/03/01 16:56:50;;;;;;;16.20;13.50;;;10.80;28.20;;;;;;10326362;28;20727;-71
2023/03/01 17:01:55;;;;;;;14.40;12.90;;;10.70;28.20;;;;;;10336035;28;20232;-70
2023/03/01 17:06:58;;;;;;;14.67;13.17;;;10.60;28.50;;;;;;10316992;28;20227;-71
2023/03/01 17:12:01;;;;;;;14.50;13.00;;;10.60;28.50;;;;;;10343167;28;20888;-69
2023/03/01 17:17:06;;;;;;;15.67;13.87;;;10.40;28.50;;;;;;10361237;28;20230;-73
2023/03/01 17:22:09;;;;;;;15.47;13.87;;;10.40;28.60;;;;;;10362740;28;20741;-73
2023/03/01 17:27:12;;;;;;;15.17;13.57;;;10.30;28.50;;;;;;10364085;28;20227;-75
2023/03/01 17:32:17;;;;;;;15.23;13.63;;;10.20;28.50;;;;;;10362573;28;20562;-73
2023/03/01 17:37:20;;;;;;;15.07;13.57;;;10.10;28.40;;;;;;10360856;28;20285;-73
2023/03/01 17:42:23;;;;;;;14.90;13.40;;;10.00;28.30;;;;;;10361896;28;20602;-73
2023/03/01 17:47:28;;;;;;;15.30;13.43;;;10.00;28.30;;;;;;10361485;28;20691;-73
2023/03/01 17:52:31;;;;;;;14.77;13.27;;;10.00;28.30;;;;;;10360845;28;20222;-75
2023/03/01 17:57:34;;;;;;;15.20;13.67;;;9.90;29.00;;;;;;10361843;28;20733;-73
2023/03/01 18:02:39;;;;;;;14.27;12.83;;;9.90;29.00;;;;;;10363917;28;20733;-73
2023/03/01 18:07:42;;;;;;;15.47;13.67;;;9.90;29.00;;;;;;10362279;28;20320;-73
2023/03/01 18:12:45;;;;;;;14.87;13.30;;;9.90;29.00;;;;;;10361832;28;20230;-73
2023/03/01 18:17:50;;;;;;;14.47;12.97;;;9.80;28.90;;;;;;10362545;28;20710;-73
2023/03/01 18:22:53;;;;;;;14.90;13.20;;;9.80;28.90;;;;;;10361225;28;20222;-75
2023/03/01 18:27:56;;;;;;;16.00;14.00;;;9.70;28.90;;;;;;10359121;28;20571;-75
2023/03/01 18:33:01;;;;;;;14.47;12.97;;;9.60;28.80;;;;;;10363055;28;20234;-75
2023/03/01 18:38:04;;;;;;;14.93;13.43;;;9.50;28.70;;;;;;10355515;28;20778;-72
2023/03/01 18:43:07;;;;;;;15.73;14.10;;;9.40;28.90;;;;;;10362447;28;20241;-75
2023/03/01 18:48:13;;;;;;;14.37;12.97;;;9.30;29.00;;;;;;10360607;28;20245;-73
2023/03/01 18:53:16;;;;;;;14.83;13.27;;;9.20;29.10;;;;;;10359551;28;20230;-75
2023/03/01 18:58:19;;;;;;;15.77;14.17;;;9.10;29.10;;;;;;10362965;28;20230;-73
2023/03/01 19:03:23;;;;;;;16.00;14.27;;;9.00;29.30;;;;;;10358978;28;20245;-75
2023/03/01 19:08:27;;;;;;;15.73;13.33;;;9.00;29.30;;;;;;10358971;28;20245;-73
2023/03/01 19:13:31;;;;;;;15.97;14.07;;;8.90;29.30;;;;;;10360204;28;20317;-73
2023/03/01 19:18:36;;;;;;;15.70;14.10;;;8.80;29.30;;;;;;10351220;28;20670;-73
2023/03/01 19:23:39;;;;;;;16.03;13.93;;;8.70;29.40;;;;;;10346944;28;20218;-73
2023/03/01 19:28:43;;;;;;;15.47;13.87;;;8.60;29.40;;;;;;10341590;28;20478;-73
2023/03/01 19:33:47;;;;;;;15.40;13.53;;;8.60;29.40;;;;;;10341448;28;20218;-73
2023/03/01 19:38:52;;;;;;;14.67;12.53;;;8.50;29.50;;;;;;10341869;28;20819;-73
2023/03/01 19:43:56;;;;;;;15.03;13.43;;;8.40;29.50;;;;;;10344430;28;20729;-73
2023/03/01 19:49:02;;;;;;;15.23;13.73;;;8.40;29.60;;;;;;10340692;28;20231;-73
2023/03/01 19:54:05;;;;;;;13.30;11.90;;;8.30;29.70;;;;;;10342399;28;20223;-73
2023/03/01 19:59:09;;;;;;;15.97;13.57;;;8.20;29.60;;;;;;10343259;28;20633;-69
2023/03/01 20:04:13;;;;;;;15.20;13.60;;;8.20;29.70;;;;;;10342093;28;20599;-69
2023/03/01 20:09:17;;;;;;;13.60;12.20;;;8.20;29.80;;;;;;10341975;28;20252;-69
2023/03/01 20:14:24;;;;;;;13.73;12.23;;;8.10;29.70;;;;;;10344375;28;20762;-69
2023/03/01 20:19:28;;;;;;;14.87;13.23;;;8.10;29.60;;;;;;10351768;28;20715;-70
2023/03/01 20:24:32;;;;;;;13.57;12.13;;;8.00;29.70;;;;;;10352976;28;20229;-71
2023/03/01 20:29:35;;;;;;;13.77;12.27;;;7.90;29.60;;;;;;10355852;28;20238;-71
2023/03/01 20:34:40;;;;;;;13.23;11.87;;;7.80;29.60;;;;;;10355521;28;20226;-71
2023/03/01 20:39:43;;;;;;;13.93;12.53;;;7.70;29.80;;;;;;10354835;28;20234;-71
2023/03/01 20:44:46;;;;;;;13.33;11.90;;;7.70;29.80;;;;;;10346653;28;20234;-72
2023/03/01 20:49:52;;;;;;;14.00;12.47;;;7.60;29.90;;;;;;10355349;28;20226;-72
2023/03/01 20:54:55;;;;;;;14.53;12.97;;;7.60;30.00;;;;;;10356710;28;20222;-72
2023/03/01 20:59:58;;;;;;;13.57;12.17;;;7.50;29.90;;;;;;10355140;28;20261;-72
2023/03/01 21:05:02;;;;;;;15.03;12.23;;;7.40;29.80;;;;;;10355654;28;20716;-73
2023/03/01 21:10:06;;;;;;;11.87;10.70;;;7.40;30.00;;;;;;10355903;28;20227;-74
2023/03/01 21:15:10;;;;;;;13.03;11.53;;;7.30;30.00;;;;;;10355363;28;20232;-73
2023/03/01 21:20:31;;;;;;;10.87;9.77;;;7.30;30.20;;;;;;10355257;28;20222;-75
2023/03/01 21:25:34;;;;;;;13.50;11.97;;;7.20;30.20;;;;;;10357732;28;20237;-72
2023/03/01 21:30:37;;;;;;;12.50;11.30;;;7.20;30.20;;;;;;10354690;28;20223;-74
2023/03/01 21:35:42;;;;;;;12.77;11.30;;;7.20;30.40;;;;;;10356476;28;20603;-73
2023/03/01 21:40:45;;;;;;;11.43;10.27;;;7.20;30.40;;;;;;10352111;28;20752;-73
2023/03/01 21:45:48;;;;;;;12.37;11.07;;;7.10;30.40;;;;;;10360633;28;20222;-73
2023/03/01 21:50:56;;;;;;;12.20;10.90;;;7.10;30.40;;;;;;10361249;28;20741;-73
2023/03/01 21:55:59;;;;;;;11.97;10.77;;;7.10;30.90;;;;;;10358820;28;20234;-73
2023/03/01 22:01:08;;;;;;;11.73;10.23;;;7.00;30.50;;;;;;10357984;28;20346;-74
2023/03/01 22:06:17;;;;;;;10.83;9.73;;;7.00;30.60;;;;;;10356289;28;20241;-76
2023/03/01 22:11:22;;;;;;;12.03;10.67;;;6.90;30.60;;;;;;10356248;28;20229;-76
2023/03/01 22:16:27;;;;;;;11.50;10.33;;;6.90;30.50;;;;;;10353653;28;20222;-76
2023/03/01 22:21:32;;;;;;;10.10;9.10;;;6.80;30.50;;;;;;10355978;28;20230;-76
2023/03/01 22:26:37;;;;;;;11.30;10.20;;;6.80;30.60;;;;;;10357253;28;20613;-75
2023/03/01 22:31:40;;;;;;;11.63;10.43;;;6.80;30.80;;;;;;10354728;28;20218;-75
2023/03/01 22:36:48;;;;;;;11.77;10.53;;;6.70;30.60;;;;;;10354387;28;20769;-76
2023/03/01 22:41:53;;;;;;;12.13;10.87;;;6.70;31.00;;;;;;10357038;28;20592;-76
2023/03/01 22:46:57;;;;;;;11.80;10.60;;;6.70;30.70;;;;;;10355358;28;20226;-75
2023/03/01 22:52:01;;;;;;;10.80;9.73;;;6.70;30.60;;;;;;10360750;28;20230;-75
2023/03/01 22:57:04;;;;;;;10.93;9.73;;;6.60;30.80;;;;;;10360239;28;20238;-76
2023/03/01 23:02:07;;;;;;;11.60;9.80;;;6.60;30.80;;;;;;10356787;28;20276;-76
2023/03/01 23:07:12;;;;;;;9.60;8.50;;;6.60;30.90;;;;;;10358468;28;20238;-76
2023/03/01 23:12:15;;;;;;;12.87;10.63;;;6.50;30.90;;;;;;10359702;28;20230;-76
2023/03/01 23:17:18;;;;;;;12.70;10.33;;;6.40;30.70;;;;;;10358459;28;20219;-76
2023/03/01 23:22:22;;;;;;;10.20;9.20;;;6.30;30.70;;;;;;10360175;28;20603;-76
2023/03/01 23:27:29;;;;;;;11.97;9.33;;;6.30;31.00;;;;;;10358362;28;20235;-76
2023/03/01 23:32:37;;;;;;;10.20;9.10;;;6.30;31.00;;;;;;10359305;28;20273;-76
2023/03/01 23:37:41;;;;;;;11.93;8.97;;;6.20;31.00;;;;;;10359019;28;21182;-76
2023/03/01 23:42:44;;;;;;;9.87;8.87;;;6.20;31.10;;;;;;10355682;28;20222;-77
2023/03/01 23:47:48;;;;;;;10.07;9.13;;;6.10;31.10;;;;;;10355817;28;20230;-76
2023/03/01 23:52:52;;;;;;;10.60;9.30;;;6.10;31.10;;;;;;10362447;28;20223;-76
2023/03/01 23:57:55;;;;;;;10.50;9.40;;;6.10;31.60;;;;;;10365597;28;20230;-76
